Angisoq

KL  EN  DA
ASIAQ
Weather Now GREENLAND SURVEY
Updated [WGT/WGST] Temperature [°C] Wind [m/s] Air pressure [hPa] Relative humidity [%] Precipitation [mm]
Present Wind chill Speed Max
21.01 20:00-4,8-9,83,6 ⇗6,299754n/a
21.01 19:00-5,40,01,0 ⇒1,599757n/a
21.01 18:00-5,5-9,02,1 ⇒2,699851n/a
21.01 17:00-4,9-8,92,6 ⇘4,199844n/a
21.01 16:00-5,1-9,73,1 ⇘5,199848n/a
21.01 15:00-4,8-8,82,6 ⇘3,699845n/a
21.01 14:00-4,5-10,34,6 ⇓5,799849n/a
21.01 13:00-4,3-10,04,6 ⇘6,299851n/a
21.01 12:00-4,4-10,95,7 ⇘7,299958n/a
21.01 11:00-4,3-11,06,2 ⇘7,799961n/a
21.01 10:00-4,3-10,75,7 ⇓7,299964n/a
21.01 09:00-4,4-10,95,7 ⇘7,299959n/a
21.01 08:00-4,3-10,75,7 ⇘7,299960n/a
21.01 07:00-4,2-9,94,6 ⇘5,799958n/a
21.01 06:00-4,4-10,55,1 ⇘6,7100062n/a
21.01 05:00-4,3-10,45,1 ⇘7,7100066n/a
21.01 04:00-4,1-10,86,2 ⇒7,7100062n/a
21.01 03:00-4,1-10,86,2 ⇒7,2100062n/a
21.01 02:00-3,9-11,58,2 ⇒13,4100062n/a
21.01 01:00-3,8-12,09,8 ⇒11,8100063n/a
21.01 00:00-3,7-12,210,8 ⇒13,9100059n/a
20.01 23:00-3,5-12,612,9 ⇒15,499962n/a
20.01 22:00-3,5-12,813,4 ⇒16,599964n/a
20.01 21:00-3,3-12,212,4 ⇒16,099869n/a
20.01 20:00-3,3-12,212,4 ⇒14,999770n/a
Position: (59.9911111111,-45.14611111)

[Back]